Insider Buying

 
Symbol Name Keyword
Filings for:
Note: This page automatically refreshes every three minutes.
  Symbol Owner Relationship Date Cost # Shares Value($) Total Shares Filing
Y! PSNL RICCI PAUL Director Jun 24, 2019 $17.00 40,000 680,000 20,000 Jun 24, 2019, 08:02 PM
Y! CSU Levinson Sam 10% Owner Jun 21, 2019 $4.28 140,000 599,200 3,715,921 Jun 24, 2019, 08:01 PM
Y! CSU Levinson Sam 10% Owner Jun 20, 2019 $4.28 102,177 437,318 3,575,921 Jun 24, 2019, 08:01 PM
Y! PSNL LUDLUM KEN Director Jun 24, 2019 $17.00 70,000 1,190,000 70,000 Jun 24, 2019, 08:01 PM
Y! RUN TIGER GLOBAL MANAGEMENT LLC 10% Owner Jun 20, 2019 $18.68 388,428 7,257,777 8,017,585 Jun 24, 2019, 06:54 PM
Y! RUN TIGER GLOBAL MANAGEMENT LLC 10% Owner Jun 21, 2019 $18.54 195,396 3,623,424 11,951,069 Jun 24, 2019, 06:54 PM
Y! RUN TIGER GLOBAL MANAGEMENT LLC 10% Owner Jun 21, 2019 $18.54 199,344 3,696,635 8,216,929 Jun 24, 2019, 06:54 PM
Y! RUN TIGER GLOBAL MANAGEMENT LLC 10% Owner Jun 20, 2019 $18.65 233,175 4,348,481 11,755,673 Jun 24, 2019, 06:54 PM
Y! BTN Fundamental Global Investors, LLC Director Jun 20, 2019 $3.00 2,128 6,380 1,307,657 Jun 24, 2019, 06:52 PM
Y! BTN Fundamental Global Investors, LLC Director Jun 20, 2019 $3.00 2,128 6,380 1,292,564 Jun 24, 2019, 06:52 PM
Y! BTN Fundamental Global Investors, LLC Director Jun 21, 2019 $2.95 475 1,403 1,308,132 Jun 24, 2019, 06:52 PM
Y! BTN Fundamental Global Investors, LLC Director Jun 21, 2019 $2.95 475 1,403 1,293,039 Jun 24, 2019, 06:52 PM
Y! GO Lindberg Eric J. Jr. Chief Executive Officer Jun 24, 2019 $22.00 460 10,120 460 Jun 24, 2019, 06:51 PM
Y! GO Lindberg Eric J. Jr. Chief Executive Officer Jun 24, 2019 $22.00 460 10,120 460 Jun 24, 2019, 06:51 PM
Y! GO Bracher Charles Chief Financial Officer Jun 24, 2019 $22.00 2,610 57,420 2,610 Jun 24, 2019, 06:49 PM
Y! BKSC Sharry Sheryl G Director Jun 20, 2019 $18.25 1,483 27,065 19,118 Jun 24, 2019, 05:14 PM
Y! SBFG HELBERG TOM R Director Jun 21, 2019 $16.75 370 6,198 5,028 Jun 24, 2019, 05:12 PM
Y! BKSC SASS DOUGLAS H Executive Vice President Jun 20, 2019 $18.25 1,483 27,065 19,118 Jun 24, 2019, 05:11 PM
Y! BKSC Hassell Fleetwood S President Jun 20, 2019 $18.25 1,483 27,065 19,118 Jun 24, 2019, 05:09 PM
Y! VC Wilson Harry James Director Jun 21, 2019 $53.92 2,000 107,840 12,000 Jun 24, 2019, 05:05 PM
Y! BKSC Walpole Eugene H IV Executive Vice President Jun 20, 2019 $18.25 1,483 27,065 19,118 Jun 24, 2019, 05:02 PM
Y! HEB SPRINGATE WAYNE S Sr. VP of Operations Jun 21, 2019 $4.03 5,211 21,000 8,672 Jun 24, 2019, 05:01 PM
Y! JILL TowerBrook Investors, Ltd. 10% Owner Jun 21, 2019 $1.67 54,751 91,232 26,239,071 Jun 24, 2019, 04:38 PM
Y! JILL TowerBrook Investors, Ltd. 10% Owner Jun 20, 2019 $1.64 59,700 97,633 26,184,320 Jun 24, 2019, 04:38 PM
Y! AC GABELLI MARIO J Executive Chairman Jun 21, 2019 $35.18 331 11,646 6,615 Jun 24, 2019, 04:29 PM
Y! AC GABELLI MARIO J Executive Chairman Jun 24, 2019 $35.41 2,700 95,619 9,315 Jun 24, 2019, 04:29 PM
Y! PRIFA Stark Eugene S Director Jun 20, 2019 $24.95 625 15,594 2,000 Jun 24, 2019, 04:22 PM
Y! HEB MITCHELL WILLIAM M Director Jun 21, 2019 $4.03 9,677 38,998 20,838 Jun 24, 2019, 04:14 PM
Y! IDTY] Selzer Herbert M. Director Jun 20, 2019 $0.08 625,000 50,000 5,363,945 Jun 24, 2019, 04:11 PM
Y! KXIN Wang Sing Director Jun 21, 2019 $2.20 2,099 4,618 135,024 Jun 24, 2019, 04:08 PM
Y! KXIN Wang Sing Director Jun 20, 2019 $2.20 4,783 10,523 132,925 Jun 24, 2019, 04:08 PM
Y! ASRV WISE ROBERT L Director Jun 14, 2019 $4.16 166 691 157,844 Jun 24, 2019, 04:03 PM
Y! NHTC BROADY GEORGE K Director Jun 20, 2019 $8.12 2,000 16,240 690,099 Jun 24, 2019, 02:52 PM
Y! DNP Luecke Connie M VP & Chief Investment Officer Jun 21, 2019 $11.82 1,140 13,475 6,541 Jun 24, 2019, 02:38 PM
Y! DRRX First Eagle Investment Management, LLC 10% Owner Jun 20, 2019 $0.52 4,000,000 2,080,000 26,476,546 Jun 24, 2019, 02:12 PM
Y! CPHC SCHENIAN DALE H Director Jun 20, 2019 $12.96 3,400 44,064 518,464 Jun 24, 2019, 12:16 PM
Y! TPL HORIZON KINETICS ASSET MANAGEMENT LLC 10% Owner Jun 21, 2019 $791.07 50 39,554 298,309 Jun 24, 2019, 11:49 AM
Y! POPE RINGO THOMAS M President and CEO Jun 20, 2019 $68.10 59 4,018 39,469 Jun 24, 2019, 11:34 AM
Y! FDEF Liuzzi Vince Bank President May 30, 2019 $27.44 365 10,016 365 Jun 24, 2019, 10:49 AM
Y! SYBT TASMAN NORMAN Director Jun 21, 2019 $34.57 135 4,667 66,687 Jun 24, 2019, 10:08 AM
Y! SYBT Schutte John Director Jun 21, 2019 $34.57 43 1,487 1,155 Jun 24, 2019, 10:07 AM
Y! SYBT Priebe Stephen M Director Jun 21, 2019 $34.57 134 4,632 15,740 Jun 24, 2019, 10:06 AM
Y! SYBT Herde Carl G Director Jun 21, 2019 $34.57 61 2,109 23,212 Jun 24, 2019, 10:05 AM
Y! SYBT Heitzman Donna L Director Jun 21, 2019 $34.57 93 3,215 4,384 Jun 24, 2019, 10:04 AM
Y! SYBT Brown J McCauley Director Jun 21, 2019 $34.57 33 1,141 2,289 Jun 24, 2019, 10:03 AM
Y! SYBT Bickel Paul J III Director Jun 21, 2019 $34.57 93 3,215 2,471 Jun 24, 2019, 10:02 AM
Y! HIL CHADWICK JAMES M Director Jun 19, 2019 $2.80 10,000 28,000 1,712,278 Jun 24, 2019, 09:13 AM
Y! RRTS ELLIOTT INTERNATIONAL, L.P. 10% Owner Jun 21, 2019 $8.98 2,208 19,828 23,109,323 Jun 24, 2019, 08:35 AM
Y! RRTS ELLIOTT INTERNATIONAL, L.P. 10% Owner Jun 20, 2019 $9.18 3,610 33,140 23,107,115 Jun 24, 2019, 08:35 AM
Y! SGMS PERELMAN RONALD O Director Jun 20, 2019 $20.21 75,000 1,515,750 36,443,768 Jun 24, 2019, 06:09 AM
Y! GIGM Huang Cheng-Ming CEO Jun 21, 2019 $2.52 9,944 25,096 803,327 Jun 24, 2019, 06:01 AM
Y! GIGM Huang Cheng-Ming CEO Jun 19, 2019 $2.50 57,885 144,574 793,383 Jun 24, 2019, 06:01 AM
Y! NAVB Scott John K Jr. 10% Owner Jun 18, 2019 $0.75 4,000,000 3,000,000 5,113,078 Jun 21, 2019, 08:50 PM
Y! BCDA Altman Peter President and CEO Jun 20, 2019 $9.00 300 2,700 84,527 Jun 21, 2019, 08:08 PM
Y! FSLY Abdiel Capital Management, LLC 10% Owner Jun 03, 2019 $19.92 7,460 148,603 2,100,000 Jun 21, 2019, 07:33 PM
Y! FSLY Abdiel Capital Management, LLC 10% Owner Jun 03, 2019 $19.92 242,540 4,831,397 2,092,540 Jun 21, 2019, 07:33 PM
Y! CNBKA Filler James J 10% Owner Jun 13, 2019 $85.13 400 34,050 697,680 Jun 21, 2019, 07:26 PM
Y! CNBKA Filler James J 10% Owner Jun 20, 2019 $85.75 200 17,150 698,380 Jun 21, 2019, 07:26 PM
Y! CNBKA Filler James J 10% Owner Jun 12, 2019 $85.58 301 25,760 697,280 Jun 21, 2019, 07:26 PM
Y! CNBKA Filler James J 10% Owner Jun 19, 2019 $86.23 300 25,869 698,180 Jun 21, 2019, 07:26 PM
Y! CNBKA Filler James J 10% Owner Jun 11, 2019 $86.08 412 35,465 696,979 Jun 21, 2019, 07:26 PM
Y! CNBKA Filler James J 10% Owner Jun 18, 2019 $86.50 200 17,300 697,880 Jun 21, 2019, 07:26 PM
Y! CNBKA Filler James J 10% Owner Jun 21, 2019 $85.15 400 34,060 698,780 Jun 21, 2019, 07:26 PM
Y! ASDN Bent Bruce CEO, CFO Dec 19, 2018 $122090.00 165,000 20,144,850,000 55,061,237 Jun 21, 2019, 06:13 PM
Y! ASDN Bent Bruce CEO, CFO Dec 18, 2018 $75000.00 100,000 7,500,000,000 54,922,137 Jun 21, 2019, 06:13 PM
Y! ASDN Bent Bruce CEO, CFO Mar 08, 2019 $9394.75 20,000 187,895,000 54,556,937 Jun 21, 2019, 06:13 PM
Y! NGM GOEDDEL DAVID V Director Jun 20, 2019 $13.86 15,400 213,385 15,868,088 Jun 21, 2019, 06:08 PM
Y! NGM GOEDDEL DAVID V Director Jun 19, 2019 $13.91 15,214 211,674 15,852,688 Jun 21, 2019, 06:08 PM
Y! NGM GOEDDEL DAVID V Director Jun 21, 2019 $14.03 3,763 52,789 15,871,851 Jun 21, 2019, 06:08 PM
Y! NGM Svennilson Peter Director Jun 19, 2019 $13.91 15,214 211,674 15,662,688 Jun 21, 2019, 05:55 PM
Y! NGM Svennilson Peter Director Jun 21, 2019 $14.03 3,763 52,789 15,681,851 Jun 21, 2019, 05:55 PM
Y! NGM Svennilson Peter Director Jun 20, 2019 $13.86 15,400 213,385 15,678,088 Jun 21, 2019, 05:55 PM
Y! CHAP Strategic Value Partners, LLC 10% Owner Jun 19, 2019 $3.37 46,432 156,476 6,091,112 Jun 21, 2019, 05:52 PM
Y! CHAP Strategic Value Partners, LLC 10% Owner Jun 21, 2019 $3.77 23,306 87,864 6,176,318 Jun 21, 2019, 05:52 PM
Y! CHAP Strategic Value Partners, LLC 10% Owner Jun 20, 2019 $3.70 100,000 370,000 6,160,212 Jun 21, 2019, 05:52 PM
Y! ASDN Bent Bruce CEO, CFO Oct 16, 2018 $1865.00 1,950 3,636,750 54,574,334 Jun 21, 2019, 05:47 PM
Y! ASDN Bent Bruce CEO, CFO Oct 30, 2018 $34542.00 41,400 1,430,038,800 54,625,409 Jun 21, 2019, 05:47 PM
Y! ASDN Bent Bruce CEO, CFO Nov 13, 2018 $1740.00 3,000 5,220,000 54,677,409 Jun 21, 2019, 05:47 PM
Y! ASDN Bent Bruce CEO, CFO Sep 27, 2018 $132.00 100 13,200 54,632,898 Jun 21, 2019, 05:47 PM
Y! ASDN Bent Bruce CEO, CFO Oct 23, 2018 $480.00 400 192,000 54,589,309 Jun 21, 2019, 05:47 PM
Y! ASDN Bent Bruce CEO, CFO Nov 07, 2018 $14645.20 19,000 278,258,804 54,656,909 Jun 21, 2019, 05:47 PM
Y! ASDN Bent Bruce CEO, CFO Nov 28, 2018 $68600.33 116,728 8,007,579,101 54,855,137 Jun 21, 2019, 05:47 PM
Y! ASDN Bent Bruce CEO, CFO Oct 15, 2018 $2250.00 2,500 5,625,000 54,572,384 Jun 21, 2019, 05:47 PM
Y! ASDN Bent Bruce CEO, CFO Oct 29, 2018 $2250.00 2,500 5,625,000 54,584,009 Jun 21, 2019, 05:47 PM
Y! ASDN Bent Bruce CEO, CFO Nov 12, 2018 $4825.00 7,500 36,187,500 54,674,409 Jun 21, 2019, 05:47 PM
Y! ASDN Bent Bruce CEO, CFO Oct 19, 2018 $8819.25 8,325 73,420,256 54,588,909 Jun 21, 2019, 05:47 PM
Y! ASDN Bent Bruce CEO, CFO Nov 01, 2018 $2104.00 2,500 5,260,000 54,637,909 Jun 21, 2019, 05:47 PM
Y! ASDN Bent Bruce CEO, CFO Nov 27, 2018 $14500.00 25,000 362,500,000 54,738,409 Jun 21, 2019, 05:47 PM
Y! ASDN Bent Bruce CEO, CFO Oct 15, 2018 $2200.50 2,250 4,951,125 54,569,884 Jun 21, 2019, 05:47 PM
Y! ASDN Bent Bruce CEO, CFO Oct 26, 2018 $1770.50 1,600 2,832,800 54,581,509 Jun 21, 2019, 05:47 PM
Y! ASDN Bent Bruce CEO, CFO Nov 09, 2018 $5268.20 7,000 36,877,401 54,666,909 Jun 21, 2019, 05:47 PM
Y! ASDN Bent Bruce CEO, CFO Oct 17, 2018 $6075.00 6,250 37,968,750 54,580,584 Jun 21, 2019, 05:47 PM
Y! ASDN Bent Bruce CEO, CFO Oct 31, 2018 $8819.00 10,000 88,190,000 54,635,409 Jun 21, 2019, 05:47 PM
Y! ASDN Bent Bruce CEO, CFO Nov 16, 2018 $20961.50 36,000 754,614,000 54,713,409 Jun 21, 2019, 05:47 PM
Y! ASDN Bent Bruce CEO, CFO Oct 12, 2018 $200.00 200 40,000 54,567,634 Jun 21, 2019, 05:47 PM
Y! ASDN Bent Bruce CEO, CFO Oct 24, 2018 $9992.00 8,600 85,931,200 54,579,909 Jun 21, 2019, 05:47 PM
Y! ASDN Bent Bruce CEO, CFO Nov 08, 2018 $2311.50 3,000 6,934,500 54,659,909 Jun 21, 2019, 05:47 PM
Y! NGM COLUMN GROUP L P 10% Owner Jun 19, 2019 $13.91 15,214 211,674 2,093,597 Jun 21, 2019, 05:41 PM
Y! NGM COLUMN GROUP L P 10% Owner Jun 21, 2019 $14.03 3,763 52,789 2,112,760 Jun 21, 2019, 05:41 PM
Y! NGM COLUMN GROUP L P 10% Owner Jun 20, 2019 $13.86 15,400 213,385 2,108,997 Jun 21, 2019, 05:41 PM
Next : Last
 
Symbol Name Keyword
Filings for:
Note: This page automatically refreshes every three minutes.
Desktop Version
Symbol Owner Relationship Date Value($)
PSNL RICCI PAUL Director Jun 24, 2019 680,000
CSU Levinson Sam 10% Owner Jun 21, 2019 599,200
CSU Levinson Sam 10% Owner Jun 20, 2019 437,318
PSNL LUDLUM KEN Director Jun 24, 2019 1,190,000
RUN TIGER GLOBAL MANAGEMENT LLC 10% Owner Jun 20, 2019 7,257,777
RUN TIGER GLOBAL MANAGEMENT LLC 10% Owner Jun 21, 2019 3,623,424
RUN TIGER GLOBAL MANAGEMENT LLC 10% Owner Jun 21, 2019 3,696,635
RUN TIGER GLOBAL MANAGEMENT LLC 10% Owner Jun 20, 2019 4,348,481
BTN Fundamental Global Investors, LLC Director Jun 20, 2019 6,380
BTN Fundamental Global Investors, LLC Director Jun 20, 2019 6,380
BTN Fundamental Global Investors, LLC Director Jun 21, 2019 1,403
BTN Fundamental Global Investors, LLC Director Jun 21, 2019 1,403
GO Lindberg Eric J. Jr. Chief Executive Officer Jun 24, 2019 10,120
GO Lindberg Eric J. Jr. Chief Executive Officer Jun 24, 2019 10,120
GO Bracher Charles Chief Financial Officer Jun 24, 2019 57,420
BKSC Sharry Sheryl G Director Jun 20, 2019 27,065
SBFG HELBERG TOM R Director Jun 21, 2019 6,198
BKSC SASS DOUGLAS H Executive Vice President Jun 20, 2019 27,065
BKSC Hassell Fleetwood S President Jun 20, 2019 27,065
VC Wilson Harry James Director Jun 21, 2019 107,840
BKSC Walpole Eugene H IV Executive Vice President Jun 20, 2019 27,065
HEB SPRINGATE WAYNE S Sr. VP of Operations Jun 21, 2019 21,000
JILL TowerBrook Investors, Ltd. 10% Owner Jun 21, 2019 91,232
JILL TowerBrook Investors, Ltd. 10% Owner Jun 20, 2019 97,633
AC GABELLI MARIO J Executive Chairman Jun 21, 2019 11,646
AC GABELLI MARIO J Executive Chairman Jun 24, 2019 95,619
PRIFA Stark Eugene S Director Jun 20, 2019 15,594
HEB MITCHELL WILLIAM M Director Jun 21, 2019 38,998
IDTY] Selzer Herbert M. Director Jun 20, 2019 50,000
KXIN Wang Sing Director Jun 21, 2019 4,618
KXIN Wang Sing Director Jun 20, 2019 10,523
ASRV WISE ROBERT L Director Jun 14, 2019 691
NHTC BROADY GEORGE K Director Jun 20, 2019 16,240
DNP Luecke Connie M VP & Chief Investment Officer Jun 21, 2019 13,475
DRRX First Eagle Investment Management, LLC 10% Owner Jun 20, 2019 2,080,000
CPHC SCHENIAN DALE H Director Jun 20, 2019 44,064
TPL HORIZON KINETICS ASSET MANAGEMENT LLC 10% Owner Jun 21, 2019 39,554
POPE RINGO THOMAS M President and CEO Jun 20, 2019 4,018
FDEF Liuzzi Vince Bank President May 30, 2019 10,016
SYBT TASMAN NORMAN Director Jun 21, 2019 4,667
SYBT Schutte John Director Jun 21, 2019 1,487
SYBT Priebe Stephen M Director Jun 21, 2019 4,632
SYBT Herde Carl G Director Jun 21, 2019 2,109
SYBT Heitzman Donna L Director Jun 21, 2019 3,215
SYBT Brown J McCauley Director Jun 21, 2019 1,141
SYBT Bickel Paul J III Director Jun 21, 2019 3,215
HIL CHADWICK JAMES M Director Jun 19, 2019 28,000
RRTS ELLIOTT INTERNATIONAL, L.P. 10% Owner Jun 21, 2019 19,828
RRTS ELLIOTT INTERNATIONAL, L.P. 10% Owner Jun 20, 2019 33,140
SGMS PERELMAN RONALD O Director Jun 20, 2019 1,515,750
GIGM Huang Cheng-Ming CEO Jun 21, 2019 25,096
GIGM Huang Cheng-Ming CEO Jun 19, 2019 144,574
NAVB Scott John K Jr. 10% Owner Jun 18, 2019 3,000,000
BCDA Altman Peter President and CEO Jun 20, 2019 2,700
FSLY Abdiel Capital Management, LLC 10% Owner Jun 03, 2019 148,603
FSLY Abdiel Capital Management, LLC 10% Owner Jun 03, 2019 4,831,397
CNBKA Filler James J 10% Owner Jun 13, 2019 34,050
CNBKA Filler James J 10% Owner Jun 20, 2019 17,150
CNBKA Filler James J 10% Owner Jun 12, 2019 25,760
CNBKA Filler James J 10% Owner Jun 19, 2019 25,869
CNBKA Filler James J 10% Owner Jun 11, 2019 35,465
CNBKA Filler James J 10% Owner Jun 18, 2019 17,300
CNBKA Filler James J 10% Owner Jun 21, 2019 34,060
ASDN Bent Bruce CEO, CFO Dec 19, 2018 20,144,850,000
ASDN Bent Bruce CEO, CFO Dec 18, 2018 7,500,000,000
ASDN Bent Bruce CEO, CFO Mar 08, 2019 187,895,000
NGM GOEDDEL DAVID V Director Jun 20, 2019 213,385
NGM GOEDDEL DAVID V Director Jun 19, 2019 211,674
NGM GOEDDEL DAVID V Director Jun 21, 2019 52,789
NGM Svennilson Peter Director Jun 19, 2019 211,674
NGM Svennilson Peter Director Jun 21, 2019 52,789
NGM Svennilson Peter Director Jun 20, 2019 213,385
CHAP Strategic Value Partners, LLC 10% Owner Jun 19, 2019 156,476
CHAP Strategic Value Partners, LLC 10% Owner Jun 21, 2019 87,864
CHAP Strategic Value Partners, LLC 10% Owner Jun 20, 2019 370,000
ASDN Bent Bruce CEO, CFO Oct 16, 2018 3,636,750
ASDN Bent Bruce CEO, CFO Oct 30, 2018 1,430,038,800
ASDN Bent Bruce CEO, CFO Nov 13, 2018 5,220,000
ASDN Bent Bruce CEO, CFO Sep 27, 2018 13,200
ASDN Bent Bruce CEO, CFO Oct 23, 2018 192,000
ASDN Bent Bruce CEO, CFO Nov 07, 2018 278,258,804
ASDN Bent Bruce CEO, CFO Nov 28, 2018 8,007,579,101
ASDN Bent Bruce CEO, CFO Oct 15, 2018 5,625,000
ASDN Bent Bruce CEO, CFO Oct 29, 2018 5,625,000
ASDN Bent Bruce CEO, CFO Nov 12, 2018 36,187,500
ASDN Bent Bruce CEO, CFO Oct 19, 2018 73,420,256
ASDN Bent Bruce CEO, CFO Nov 01, 2018 5,260,000
ASDN Bent Bruce CEO, CFO Nov 27, 2018 362,500,000
ASDN Bent Bruce CEO, CFO Oct 15, 2018 4,951,125
ASDN Bent Bruce CEO, CFO Oct 26, 2018 2,832,800
ASDN Bent Bruce CEO, CFO Nov 09, 2018 36,877,401
ASDN Bent Bruce CEO, CFO Oct 17, 2018 37,968,750
ASDN Bent Bruce CEO, CFO Oct 31, 2018 88,190,000
ASDN Bent Bruce CEO, CFO Nov 16, 2018 754,614,000
ASDN Bent Bruce CEO, CFO Oct 12, 2018 40,000
ASDN Bent Bruce CEO, CFO Oct 24, 2018 85,931,200
ASDN Bent Bruce CEO, CFO Nov 08, 2018 6,934,500
NGM COLUMN GROUP L P 10% Owner Jun 19, 2019 211,674
NGM COLUMN GROUP L P 10% Owner Jun 21, 2019 52,789
NGM COLUMN GROUP L P 10% Owner Jun 20, 2019 213,385
Next : Last